Time;durP1;ratioP1;P1;durP2;ratioP2;P2;SDS_P1;SDS_P2;PMS_P1;PMS_P2;Temp;Humidity;BMP_temperature;BMP_pressure;BME280_temperature;BME280_humidity;BME280_pressure;Samples;Min_cycle;Max_cycle;Signal;HPM_P1;HPM_P2
2022/08/29 00:00:34;;;;;;;18.48;11.77;;;;;;;24.37;nan;95030.81;4989519;28;20398;-68
2022/08/29 00:03:01;;;;;;;14.45;10.82;;;;;;;24.41;nan;95020.97;4988295;28;20208;-68
2022/08/29 00:05:32;;;;;;;16.17;10.60;;;;;;;24.44;nan;95030.28;4989027;28;20282;-68
2022/08/29 00:08:00;;;;;;;13.40;9.82;;;;;;;24.29;nan;95022.88;4989868;28;20231;-68
2022/08/29 00:10:28;;;;;;;17.20;11.07;;;;;;;23.93;nan;95033.88;4990037;28;20204;-68
2022/08/29 00:12:55;;;;;;;14.90;10.80;;;;;;;23.70;nan;95026.28;4989333;28;20232;-68
2022/08/29 00:15:23;;;;;;;15.90;10.02;;;;;;;23.67;nan;95029.16;4989920;28;20667;-68
2022/08/29 00:17:51;;;;;;;21.67;12.52;;;;;;;23.25;nan;95027.59;4989183;28;20212;-67
2022/08/29 00:20:22;;;;;;;18.55;11.38;;;;;;;23.06;nan;95023.09;4988922;28;20208;-68
2022/08/29 00:22:49;;;;;;;21.85;12.35;;;;;;;22.73;nan;95035.28;4986834;28;20267;-69
2022/08/29 00:25:16;;;;;;;15.32;12.05;;;;;;;22.57;nan;95027.09;4988012;28;20326;-68
2022/08/29 00:27:43;;;;;;;13.32;11.77;;;;;;;22.87;nan;95029.00;4987944;28;20294;-68
2022/08/29 00:30:11;;;;;;;12.95;11.15;;;;;;;23.40;nan;95031.47;4987436;28;20208;-68
2022/08/29 00:32:38;;;;;;;13.50;11.52;;;;;;;23.47;nan;95026.59;4989815;28;20298;-68
2022/08/29 00:35:09;;;;;;;17.40;11.00;;;;;;;23.75;nan;95031.09;4989208;28;20863;-67
2022/08/29 00:37:36;;;;;;;18.48;10.52;;;;;;;23.74;nan;95025.09;4989063;28;20694;-70
2022/08/29 00:40:05;;;;;;;13.85;10.77;;;;;;;23.65;nan;95030.22;4989069;28;20682;-68
2022/08/29 00:42:34;;;;;;;14.30;11.40;;;;;;;23.41;nan;95027.91;4988718;28;20564;-70
2022/08/29 00:45:01;;;;;;;17.02;10.68;;;;;;;23.34;nan;95027.59;4989855;28;20227;-68
2022/08/29 00:47:32;;;;;;;18.55;12.13;;;;;;;23.59;nan;95031.56;4989395;28;20212;-68
2022/08/29 00:50:01;;;;;;;18.02;11.32;;;;;;;23.68;nan;95025.59;4988795;28;20718;-68
2022/08/29 00:52:33;;;;;;;14.98;10.75;;;;;;;23.96;nan;95018.84;4989348;28;20251;-67
2022/08/29 00:55:03;;;;;;;18.38;11.35;;;;;;;23.75;nan;95025.91;4990234;28;20203;-68
2022/08/29 00:57:32;;;;;;;11.80;10.60;;;;;;;22.65;nan;95034.25;4989049;28;20243;-69
2022/08/29 01:00:00;;;;;;;21.33;11.48;;;;;;;22.48;nan;95024.44;4989089;28;20204;-69
2022/08/29 01:02:27;;;;;;;14.57;11.20;;;;;;;22.95;nan;95026.59;4988984;28;20219;-69
2022/08/29 01:04:54;;;;;;;15.20;11.15;;;;;;;23.36;nan;95025.72;4991641;28;20783;-69
2022/08/29 01:07:21;;;;;;;13.90;11.02;;;;;;;23.63;nan;95026.94;4992691;28;20235;-67
2022/08/29 01:09:49;;;;;;;15.10;10.45;;;;;;;23.78;nan;95014.41;4990543;28;20469;-67
2022/08/29 01:12:15;;;;;;;15.68;11.38;;;;;;;23.89;nan;95016.91;4991808;28;20236;-69
2022/08/29 01:14:46;;;;;;;14.15;10.73;;;;;;;23.80;nan;95017.69;4990598;28;20203;-69
2022/08/29 01:17:17;;;;;;;16.30;11.38;;;;;;;23.71;nan;95020.16;4990650;28;20258;-68
2022/08/29 01:19:50;;;;;;;14.10;11.30;;;;;;;23.66;nan;95019.72;4990620;28;20706;-68
2022/08/29 01:22:43;;;;;;;14.95;10.15;;;;;;;23.65;nan;95025.88;4991033;28;20235;-68
2022/08/29 01:25:15;;;;;;;14.82;10.27;;;;;;;23.63;nan;95017.38;4990784;28;21025;-68
2022/08/29 01:27:46;;;;;;;14.43;10.43;;;;;;;23.56;nan;95025.81;4991342;28;20232;-67
2022/08/29 01:30:13;;;;;;;13.85;10.43;;;;;;;23.42;nan;95025.19;4990930;28;20647;-68
2022/08/29 01:32:40;;;;;;;16.65;10.73;;;;;;;23.33;nan;95025.16;4991128;28;20219;-68
2022/08/29 01:35:08;;;;;;;10.73;9.52;;;;;;;23.28;nan;95027.28;4990574;28;20275;-68
2022/08/29 01:37:38;;;;;;;17.02;10.73;;;;;;;23.26;nan;95017.06;4991830;28;20283;-68
2022/08/29 01:40:06;;;;;;;11.85;9.30;;;;;;;23.27;nan;95023.06;4991486;28;20262;-68
2022/08/29 01:42:35;;;;;;;17.40;9.85;;;;;;;23.20;nan;95022.78;4991445;28;20338;-68
2022/08/29 01:45:01;;;;;;;14.93;9.48;;;;;;;23.15;nan;95026.69;4992289;28;20232;-68
2022/08/29 01:47:33;;;;;;;15.20;11.07;;;;;;;22.29;nan;95027.69;4991458;28;20800;-68
2022/08/29 01:50:00;;;;;;;16.83;9.63;;;;;;;22.48;nan;95027.03;4991913;28;20208;-67
2022/08/29 01:52:27;;;;;;;14.50;9.77;;;;;;;22.74;nan;95025.75;4991497;28;20234;-68
2022/08/29 01:54:54;;;;;;;12.35;9.60;;;;;;;22.83;nan;95032.78;4992055;28;20205;-67
2022/08/29 01:57:20;;;;;;;12.73;10.18;;;;;;;22.87;nan;95031.56;4991984;28;20248;-68
2022/08/29 01:59:48;;;;;;;10.55;9.65;;;;;;;22.97;nan;95032.47;4992353;28;20205;-68
2022/08/29 02:02:20;;;;;;;11.90;9.48;;;;;;;23.00;nan;95041.78;4991465;28;20238;-68
2022/08/29 02:04:48;;;;;;;11.40;9.32;;;;;;;23.01;nan;95044.22;4992005;28;20329;-68
2022/08/29 02:07:16;;;;;;;18.65;10.30;;;;;;;22.87;nan;95041.94;4991938;28;20228;-68
2022/08/29 02:09:43;;;;;;;11.57;9.52;;;;;;;22.83;nan;95050.91;4991457;28;20318;-68
2022/08/29 02:12:10;;;;;;;17.67;9.82;;;;;;;22.85;nan;95040.41;4991412;28;20327;-68
2022/08/29 02:14:37;;;;;;;10.65;9.65;;;;;;;22.79;nan;95046.91;4992205;28;20303;-69
2022/08/29 02:17:06;;;;;;;10.80;8.90;;;;;;;22.79;nan;95041.75;4990528;28;20212;-69
2022/08/29 02:19:34;;;;;;;14.90;9.55;;;;;;;22.50;nan;95045.88;4992392;28;20321;-68
2022/08/29 02:22:01;;;;;;;14.93;10.02;;;;;;;21.97;nan;95043.16;4990877;28;20208;-69
2022/08/29 02:24:28;;;;;;;11.90;10.55;;;;;;;21.84;nan;95047.66;4992248;28;20230;-68
2022/08/29 02:26:56;;;;;;;17.38;10.05;;;;;;;22.15;nan;95044.31;4991454;28;20711;-69
2022/08/29 02:29:23;;;;;;;12.35;9.65;;;;;;;22.31;nan;95042.16;4990653;28;20290;-70
2022/08/29 02:31:50;;;;;;;11.57;9.18;;;;;;;22.42;nan;95037.88;4991290;28;20216;-70
2022/08/29 02:34:18;;;;;;;12.70;10.18;;;;;;;21.83;nan;95038.22;4992021;28;20286;-69
2022/08/29 02:36:45;;;;;;;13.73;10.10;;;;;;;21.34;nan;95039.44;4991138;28;20227;-69
2022/08/29 02:39:12;;;;;;;12.57;10.00;;;;;;;20.84;nan;95041.44;4991870;28;20208;-70
2022/08/29 02:41:39;;;;;;;15.00;11.20;;;;;;;20.62;nan;95046.56;4991194;28;20282;-69
2022/08/29 02:44:07;;;;;;;16.35;10.27;;;;;;;20.38;nan;95044.81;4990789;28;20959;-69
2022/08/29 02:46:33;;;;;;;14.02;10.52;;;;;;;20.24;nan;95049.31;4990749;28;20204;-70
2022/08/29 02:49:00;;;;;;;13.27;11.00;;;;;;;20.12;nan;95048.41;4991582;28;20292;-69
2022/08/29 02:51:31;;;;;;;11.90;10.70;;;;;;;20.14;nan;95053.47;4991590;28;20686;-68
2022/08/29 02:53:58;;;;;;;17.38;11.05;;;;;;;20.02;nan;95050.00;4991843;28;20203;-68
2022/08/29 02:56:25;;;;;;;15.95;11.10;;;;;;;19.90;nan;95053.44;4990814;28;20290;-69
2022/08/29 02:58:52;;;;;;;16.30;10.50;;;;;;;20.03;nan;95064.56;4991356;28;20243;-68
2022/08/29 03:01:21;;;;;;;12.10;11.00;;;;;;;20.36;nan;95056.16;4990799;28;20208;-68
2022/08/29 03:03:49;;;;;;;19.23;10.60;;;;;;;21.13;nan;95057.38;4990259;28;20213;-69
2022/08/29 03:06:16;;;;;;;11.48;10.13;;;;;;;21.57;nan;95061.75;4989637;28;20298;-68
2022/08/29 03:08:44;;;;;;;12.90;9.70;;;;;;;21.66;nan;95066.25;4989926;28;20197;-69
2022/08/29 03:11:11;;;;;;;23.30;10.57;;;;;;;21.72;nan;95070.94;4989694;28;20204;-69
2022/08/29 03:13:38;;;;;;;11.65;10.07;;;;;;;21.82;nan;95075.41;4989517;28;20211;-69
2022/08/29 03:16:05;;;;;;;15.38;9.80;;;;;;;21.96;nan;95070.00;4989668;28;20209;-68
2022/08/29 03:18:32;;;;;;;12.18;9.35;;;;;;;21.64;nan;95073.28;4989904;28;20420;-69
2022/08/29 03:20:59;;;;;;;11.65;10.00;;;;;;;21.60;nan;95071.88;4990182;28;20228;-69
2022/08/29 03:23:26;;;;;;;12.57;9.98;;;;;;;21.47;nan;95076.34;4989334;28;20219;-69
2022/08/29 03:25:55;;;;;;;11.48;10.43;;;;;;;21.40;nan;95075.16;4989472;28;20224;-69
2022/08/29 03:28:22;;;;;;;20.83;10.82;;;;;;;20.73;nan;95072.44;4988961;28;20205;-69
2022/08/29 03:30:49;;;;;;;18.23;11.65;;;;;;;20.27;nan;95078.31;4989803;28;21880;-69
2022/08/29 03:33:15;;;;;;;17.10;11.60;;;;;;;19.94;nan;95070.34;4988889;28;20255;-68
2022/08/29 03:35:42;;;;;;;15.55;11.35;;;;;;;19.92;nan;95067.06;4989685;28;20466;-69
2022/08/29 03:38:10;;;;;;;19.20;11.48;;;;;;;19.98;nan;95080.34;4990671;28;20200;-69
2022/08/29 03:40:36;;;;;;;18.33;11.50;;;;;;;20.63;nan;95084.34;4989363;28;20196;-69
2022/08/29 03:43:05;;;;;;;12.70;10.77;;;;;;;20.82;nan;95081.22;4988385;28;20362;-70
2022/08/29 03:45:31;;;;;;;19.73;11.20;;;;;;;20.60;nan;95076.81;4989160;28;20331;-69
2022/08/29 03:47:58;;;;;;;21.63;11.52;;;;;;;20.56;nan;95085.72;4989029;28;20200;-70
2022/08/29 03:50:25;;;;;;;21.10;10.90;;;;;;;20.58;nan;95081.28;4989054;28;20283;-69
2022/08/29 03:52:52;;;;;;;14.77;10.35;;;;;;;20.73;nan;95089.69;4989212;28;20897;-70
2022/08/29 03:55:19;;;;;;;21.80;11.05;;;;;;;21.14;nan;95082.28;4990252;28;21557;-71
2022/08/29 03:57:46;;;;;;;14.13;10.48;;;;;;;21.46;nan;95090.22;4992947;28;20244;-71
2022/08/29 04:00:17;;;;;;;21.40;11.32;;;;;;;21.60;nan;95091.75;4991195;28;20205;-69
2022/08/29 04:02:45;;;;;;;20.58;11.80;;;;;;;21.86;nan;95087.16;4990921;28;20236;-70
2022/08/29 04:05:12;;;;;;;25.65;11.27;;;;;;;21.95;nan;95087.28;4989863;28;20220;-69
2022/08/29 04:07:45;;;;;;;18.35;12.13;;;;;;;22.00;nan;95090.38;4990186;28;20266;-70
2022/08/29 04:10:14;;;;;;;13.27;10.93;;;;;;;22.10;nan;95084.44;4990059;28;20270;-70
2022/08/29 04:12:41;;;;;;;19.95;11.88;;;;;;;22.08;nan;95094.91;4989739;28;20686;-69
2022/08/29 04:15:09;;;;;;;17.35;11.27;;;;;;;22.18;nan;95093.28;4989032;28;20282;-70
2022/08/29 04:17:37;;;;;;;19.45;10.73;;;;;;;22.27;nan;95097.69;4990285;28;20208;-70
2022/08/29 04:20:06;;;;;;;19.58;11.20;;;;;;;22.40;nan;95102.75;4989332;28;20254;-70
2022/08/29 04:22:35;;;;;;;17.42;10.32;;;;;;;22.32;nan;95100.75;4989774;28;20208;-69
2022/08/29 04:25:02;;;;;;;19.63;11.13;;;;;;;22.49;nan;95104.63;4989476;28;20228;-65
2022/08/29 04:27:29;;;;;;;16.65;12.35;;;;;;;22.59;nan;95102.91;4990365;28;20208;-68
2022/08/29 04:29:55;;;;;;;37.78;20.98;;;;;;;22.61;nan;95102.78;4991136;28;20200;-69
2022/08/29 04:32:22;;;;;;;43.03;15.77;;;;;;;21.97;nan;95110.44;4990212;28;20212;-68
2022/08/29 04:34:50;;;;;;;51.95;30.00;;;;;;;21.32;nan;95105.94;4991081;28;21562;-69
2022/08/29 04:37:17;;;;;;;33.30;23.00;;;;;;;20.95;nan;95113.00;4990070;28;20208;-68
2022/08/29 04:39:44;;;;;;;29.17;17.55;;;;;;;20.73;nan;95116.31;4989621;28;20686;-68
2022/08/29 04:42:11;;;;;;;18.27;14.18;;;;;;;20.58;nan;95112.25;4989786;28;20213;-68
2022/08/29 04:44:38;;;;;;;18.40;12.75;;;;;;;20.47;nan;95119.97;4988626;28;20874;-69
2022/08/29 04:47:06;;;;;;;15.75;13.38;;;;;;;20.43;nan;95118.53;4989391;28;20674;-69
2022/08/29 04:49:32;;;;;;;19.70;12.63;;;;;;;20.60;nan;95126.69;4990194;28;20610;-71
2022/08/29 04:52:00;;;;;;;16.52;12.88;;;;;;;20.75;nan;95127.38;4990245;28;20266;-69
2022/08/29 04:54:27;;;;;;;21.10;16.77;;;;;;;21.13;nan;95131.47;4988318;28;20665;-68
2022/08/29 04:56:54;;;;;;;40.78;25.65;;;;;;;22.02;nan;95123.88;4989256;28;20253;-68
2022/08/29 04:59:21;;;;;;;28.70;16.88;;;;;;;22.59;nan;95128.00;4988780;28;20641;-70
2022/08/29 05:01:48;;;;;;;18.88;12.70;;;;;;;22.98;nan;95136.97;4988416;28;20623;-69
2022/08/29 05:04:14;;;;;;;25.10;12.18;;;;;;;23.23;nan;95140.97;4988824;28;20266;-68
2022/08/29 05:06:42;;;;;;;22.73;12.32;;;;;;;23.44;nan;95139.19;4988779;28;20250;-68
2022/08/29 05:09:10;;;;;;;21.23;12.13;;;;;;;23.57;nan;95137.25;4988100;28;20378;-70
2022/08/29 05:11:38;;;;;;;15.63;11.23;;;;;;;23.72;nan;95140.34;4988483;28;20204;-69
2022/08/29 05:14:06;;;;;;;19.80;10.63;;;;;;;24.01;nan;95151.66;4988702;28;20246;-69
2022/08/29 05:16:35;;;;;;;21.63;11.18;;;;;;;24.64;nan;95144.47;4988848;28;20212;-68
2022/08/29 05:19:04;;;;;;;11.77;9.55;;;;;;;25.49;nan;95133.38;4989198;28;20208;-69
2022/08/29 05:21:34;;;;;;;19.85;9.98;;;;;;;26.35;nan;95139.31;4988963;28;20281;-68
2022/08/29 05:24:01;;;;;;;16.50;9.90;;;;;;;26.83;nan;95144.22;4987709;28;20261;-69
2022/08/29 05:26:32;;;;;;;17.45;9.48;;;;;;;26.94;nan;95141.41;4988119;28;20231;-70
2022/08/29 05:28:59;;;;;;;13.43;9.52;;;;;;;27.80;nan;95141.59;4988361;28;20228;-69
2022/08/29 05:31:26;;;;;;;18.05;9.18;;;;;;;29.07;nan;95145.84;4987963;28;20212;-69
2022/08/29 05:33:53;;;;;;;18.80;8.35;;;;;;;29.61;nan;95137.53;4988854;28;20279;-69
2022/08/29 05:36:20;;;;;;;17.08;9.70;;;;;;;30.11;nan;95143.34;4992156;28;20208;-69
2022/08/29 05:38:47;;;;;;;15.45;9.13;;;;;;;31.11;nan;95139.09;4994677;28;20254;-68
2022/08/29 05:41:14;;;;;;;12.73;8.45;;;;;;;31.46;nan;95147.34;4995039;28;20208;-71
2022/08/29 05:43:43;;;;;;;14.52;8.75;;;;;;;30.89;nan;95149.56;4991285;28;20303;-70
2022/08/29 05:46:10;;;;;;;13.57;8.32;;;;;;;30.67;nan;95157.22;4992416;28;20713;-70
2022/08/29 05:48:41;;;;;;;10.95;7.85;;;;;;;30.91;nan;95151.03;4994525;28;20295;-70
2022/08/29 05:51:07;;;;;;;15.60;8.13;;;;;;;32.10;nan;95150.38;4994236;28;20298;-69
2022/08/29 05:53:34;;;;;;;15.73;8.68;;;;;;;32.45;nan;95149.63;4998227;28;20214;-69
2022/08/29 05:56:02;;;;;;;12.52;8.48;;;;;;;32.07;nan;95155.97;5000378;28;20211;-70
2022/08/29 05:58:28;;;;;;;13.90;9.13;;;;;;;32.01;nan;95157.50;4997575;28;20478;-71
2022/08/29 06:00:57;;;;;;;20.85;9.25;;;;;;;31.66;nan;95159.03;4998664;28;20807;-72
2022/08/29 06:03:23;;;;;;;13.95;9.40;;;;;;;30.47;nan;95161.19;4998661;28;21324;-71
2022/08/29 06:05:51;;;;;;;13.55;9.85;;;;;;;29.39;nan;95159.94;4994721;28;20228;-70
2022/08/29 06:08:18;;;;;;;17.95;9.23;;;;;;;28.91;nan;95156.31;4994812;28;20212;-71
2022/08/29 06:10:46;;;;;;;13.75;9.45;;;;;;;29.23;nan;95154.69;4996286;28;20216;-70
2022/08/29 06:13:14;;;;;;;15.20;10.35;;;;;;;29.61;nan;95156.69;4994729;28;20678;-71
2022/08/29 06:15:43;;;;;;;17.90;9.68;;;;;;;30.34;nan;95153.91;4995203;28;20208;-71
2022/08/29 06:18:12;;;;;;;22.10;10.00;;;;;;;31.60;nan;95154.44;4992538;28;20214;-68
2022/08/29 06:20:40;;;;;;;19.63;13.52;;;;;;;32.51;nan;95155.16;4992037;28;20213;-69
2022/08/29 06:23:07;;;;;;;14.57;10.60;;;;;;;33.19;nan;95156.53;4991614;28;20302;-69
2022/08/29 06:25:34;;;;;;;26.60;16.38;;;;;;;33.40;nan;95153.94;4991703;28;20208;-69
2022/08/29 06:28:02;;;;;;;21.15;13.38;;;;;;;33.46;nan;95147.91;4992982;28;20205;-70
2022/08/29 06:30:32;;;;;;;15.57;9.13;;;;;;;33.34;nan;95152.06;4977765;28;20299;-69
2022/08/29 06:32:59;;;;;;;18.42;9.10;;;;;;;33.88;nan;95162.06;4992075;28;20208;-69
2022/08/29 06:35:27;;;;;;;12.23;10.10;;;;;;;34.30;nan;95150.56;4993719;28;20275;-70
2022/08/29 06:37:54;;;;;;;16.77;9.52;;;;;;;34.11;nan;95152.06;4994500;28;21166;-70
2022/08/29 06:40:21;;;;;;;17.83;9.57;;;;;;;34.10;nan;95150.44;4995680;28;20205;-70
2022/08/29 06:42:48;;;;;;;12.68;9.18;;;;;;;34.75;nan;95143.84;4991826;28;20714;-69
2022/08/29 06:45:14;;;;;;;30.15;22.10;;;;;;;36.49;nan;95149.84;4992433;28;20208;-69
2022/08/29 06:47:42;;;;;;;36.10;20.88;;;;;;;36.42;nan;95148.00;4992995;28;20232;-69
2022/08/29 06:50:09;;;;;;;19.00;9.85;;;;;;;36.84;nan;95151.16;4991179;28;20208;-70
2022/08/29 06:52:37;;;;;;;13.63;8.43;;;;;;;37.21;nan;95154.00;4993574;28;20898;-71
2022/08/29 06:55:10;;;;;;;12.68;9.07;;;;;;;35.75;nan;95154.41;4993792;28;20204;-70
2022/08/29 06:57:37;;;;;;;14.20;8.98;;;;;;;35.68;nan;95148.28;4992952;28;20722;-70
2022/08/29 07:00:07;;;;;;;17.42;8.82;;;;;;;36.06;nan;95152.97;4990967;28;20254;-70
2022/08/29 07:02:34;;;;;;;19.13;8.57;;;;;;;36.16;nan;95156.00;4991759;28;20220;-71
2022/08/29 07:05:01;;;;;;;19.10;8.90;;;;;;;36.65;nan;95152.00;4991645;28;20318;-70
2022/08/29 07:07:28;;;;;;;26.25;16.23;;;;;;;36.19;nan;95166.16;4990805;28;20286;-69
2022/08/29 07:09:56;;;;;;;26.48;15.27;;;;;;;36.55;nan;95164.88;4990169;28;20601;-69
2022/08/29 07:12:22;;;;;;;15.80;10.95;;;;;;;36.32;nan;95162.72;4991265;28;20746;-71
2022/08/29 07:14:50;;;;;;;19.42;12.32;;;;;;;36.20;nan;95159.03;4991135;28;20236;-69
2022/08/29 07:17:16;;;;;;;26.85;10.77;;;;;;;35.78;nan;95167.25;4991371;28;20659;-72
2022/08/29 07:19:43;;;;;;;29.33;11.38;;;;;;;34.73;nan;95162.53;4991764;28;20705;-69
2022/08/29 07:22:10;;;;;;;16.15;9.52;;;;;;;34.39;nan;95160.78;4991160;28;20204;-70
2022/08/29 07:24:37;;;;;;;19.77;9.77;;;;;;;34.21;nan;95160.44;4992139;28;20286;-68
2022/08/29 07:27:05;;;;;;;21.15;10.13;;;;;;;33.28;nan;95161.53;4991031;28;20267;-69
2022/08/29 07:29:32;;;;;;;16.25;9.10;;;;;;;31.48;nan;95160.28;4990512;28;20991;-70
2022/08/29 07:31:58;;;;;;;14.98;9.93;;;;;;;30.70;nan;95167.34;4992057;28;20262;-70
2022/08/29 07:34:25;;;;;;;12.70;8.50;;;;;;;29.69;nan;95174.19;4991241;28;20204;-70
2022/08/29 07:36:52;;;;;;;15.13;9.30;;;;;;;29.41;nan;95176.34;4993589;28;20205;-69
2022/08/29 07:39:20;;;;;;;11.18;8.30;;;;;;;29.73;nan;95178.91;4991092;28;20204;-71
2022/08/29 07:41:48;;;;;;;16.23;8.73;;;;;;;30.21;nan;95177.19;4992805;28;20209;-69
2022/08/29 07:44:18;;;;;;;22.67;15.05;;;;;;;30.62;nan;95174.47;4991253;28;20196;-68
2022/08/29 07:46:45;;;;;;;16.75;13.25;;;;;;;31.04;nan;95182.75;4992074;28;20231;-67
2022/08/29 07:49:12;;;;;;;17.25;9.63;;;;;;;31.75;nan;95181.59;4990559;28;20266;-68
2022/08/29 07:51:39;;;;;;;15.52;9.27;;;;;;;32.70;nan;95178.25;4990026;28;20693;-68
2022/08/29 07:54:06;;;;;;;13.13;7.75;;;;;;;33.21;nan;95176.41;4991441;28;20208;-68
2022/08/29 07:56:42;;;;;;;14.00;8.25;;;;;;;33.45;nan;95172.63;4990218;28;20201;-69
2022/08/29 07:59:09;;;;;;;14.43;8.23;;;;;;;32.60;nan;95168.03;4990921;28;21068;-69
2022/08/29 08:01:38;;;;;;;14.45;8.35;;;;;;;32.93;nan;95165.81;4991742;28;20208;-71
2022/08/29 08:04:06;;;;;;;11.77;7.80;;;;;;;33.01;nan;95156.97;4989991;28;20646;-71
2022/08/29 08:06:35;;;;;;;15.40;8.02;;;;;;;32.64;nan;95158.78;4991032;28;20686;-69
2022/08/29 08:09:02;;;;;;;12.77;8.05;;;;;;;32.16;nan;95154.91;4989460;28;20232;-69
2022/08/29 08:11:29;;;;;;;8.48;6.93;;;;;;;31.92;nan;95163.06;4989476;28;20208;-68
2022/08/29 08:13:57;;;;;;;9.80;7.30;;;;;;;31.97;nan;95161.50;4989333;28;20205;-68
2022/08/29 08:16:26;;;;;;;13.93;8.18;;;;;;;32.08;nan;95162.88;4989450;28;20653;-69
2022/08/29 08:18:54;;;;;;;12.48;7.97;;;;;;;32.30;nan;95158.53;4990344;28;20216;-68
2022/08/29 08:21:22;;;;;;;10.80;8.40;;;;;;;32.52;nan;95159.44;4988931;28;20212;-68
2022/08/29 08:23:49;;;;;;;12.45;8.57;;;;;;;32.53;nan;95154.00;4990352;28;20642;-68
2022/08/29 08:26:16;;;;;;;13.82;8.35;;;;;;;32.35;nan;95148.31;4989314;28;21035;-68
2022/08/29 08:28:43;;;;;;;10.18;7.93;;;;;;;32.10;nan;95145.09;4989741;28;20200;-68
2022/08/29 08:31:12;;;;;;;17.08;8.30;;;;;;;32.00;nan;95149.81;4989346;28;20584;-70
2022/08/29 08:33:39;;;;;;;14.00;8.60;;;;;;;31.66;nan;95158.19;4989097;28;20234;-68
2022/08/29 08:36:14;;;;;;;12.95;7.68;;;;;;;31.49;nan;95156.66;4990593;28;20208;-69
2022/08/29 08:38:41;;;;;;;14.88;8.75;;;;;;;31.64;nan;95150.47;4988248;28;20212;-70
2022/08/29 08:41:18;;;;;;;15.77;9.82;;;;;;;31.33;nan;95152.38;4989712;28;20216;-68
2022/08/29 08:43:50;;;;;;;10.70;7.50;;;;;;;30.86;nan;95150.72;4989095;28;20705;-69
2022/08/29 08:46:24;;;;;;;12.52;9.13;;;;;;;30.70;nan;95151.59;4989809;28;20294;-69
2022/08/29 08:48:55;;;;;;;13.07;9.52;;;;;;;30.34;nan;95150.47;4989287;28;20208;-70
2022/08/29 08:51:28;;;;;;;9.38;8.35;;;;;;;29.99;nan;95156.94;4989371;28;20235;-68
2022/08/29 08:53:59;;;;;;;15.20;8.38;;;;;;;29.43;nan;95151.63;4993319;28;20200;-70
2022/08/29 08:56:32;;;;;;;8.45;7.72;;;;;;;29.05;nan;95152.22;4996504;28;20212;-69
2022/08/29 08:59:14;;;;;;;16.67;8.55;;;;;;;28.93;nan;95153.53;4993852;28;20737;-70
2022/08/29 09:01:45;;;;;;;15.88;10.88;;;;;;;28.75;nan;95151.00;4991335;28;20628;-68
2022/08/29 09:04:28;;;;;;;15.05;8.73;;;;;;;28.56;nan;95151.28;4988637;28;20527;-71
2022/08/29 09:07:09;;;;;;;21.27;12.23;;;;;;;28.50;nan;95152.72;4990134;28;20256;-70
2022/08/29 09:09:51;;;;;;;27.75;17.88;;;;;;;28.27;nan;95147.25;4987091;28;20733;-70
2022/08/29 09:12:28;;;;;;;20.90;14.52;;;;;;;27.99;nan;95151.00;4989137;28;20244;-71
2022/08/29 09:15:04;;;;;;;20.42;14.68;;;;;;;27.88;nan;95146.06;4988334;28;20254;-70
2022/08/29 09:17:40;;;;;;;28.63;19.08;;;;;;;27.72;nan;95150.19;4990212;28;20208;-71
2022/08/29 09:20:10;;;;;;;21.65;12.60;;;;;;;27.72;nan;95141.53;4989077;28;20367;-70
2022/08/29 09:22:40;;;;;;;27.15;19.67;;;;;;;27.71;nan;95148.59;4989091;28;20204;-71
2022/08/29 09:25:09;;;;;;;64.43;40.05;;;;;;;27.70;nan;95138.28;4987583;28;20208;-68
2022/08/29 09:27:37;;;;;;;42.97;30.17;;;;;;;27.82;nan;95136.22;4991599;28;20228;-68
2022/08/29 09:30:08;;;;;;;26.70;15.18;;;;;;;27.85;nan;95139.34;4993265;28;20261;-69
2022/08/29 09:32:53;;;;;;;23.58;17.02;;;;;;;27.91;nan;95141.34;4993139;28;20235;-69
2022/08/29 09:35:23;;;;;;;16.13;10.32;;;;;;;27.88;nan;95133.00;4992461;28;20333;-72
2022/08/29 09:37:59;;;;;;;15.75;9.88;;;;;;;27.95;nan;95134.03;4991241;28;20204;-71
2022/08/29 09:40:44;;;;;;;20.17;9.40;;;;;;;28.08;nan;95123.94;4992353;28;20196;-73
2022/08/29 09:43:17;;;;;;;14.57;9.60;;;;;;;27.85;nan;95125.47;4990222;28;20228;-70
2022/08/29 09:46:02;;;;;;;15.48;9.68;;;;;;;27.76;nan;95125.41;4991704;28;20236;-70
2022/08/29 09:48:30;;;;;;;12.40;9.45;;;;;;;27.75;nan;95115.94;4991837;28;20231;-70
2022/08/29 09:51:09;;;;;;;14.18;10.82;;;;;;;27.78;nan;95120.84;4992333;28;20207;-69
2022/08/29 09:53:37;;;;;;;21.55;11.13;;;;;;;27.55;nan;95118.88;4995057;28;20242;-69
2022/08/29 09:56:06;;;;;;;17.23;11.38;;;;;;;27.61;nan;95121.75;4992011;28;20244;-69
2022/08/29 09:58:36;;;;;;;15.52;10.60;;;;;;;27.62;nan;95110.31;4993463;28;20240;-69
2022/08/29 10:01:05;;;;;;;15.88;11.07;;;;;;;27.58;nan;95114.22;4993231;28;20958;-70
2022/08/29 10:03:35;;;;;;;21.92;10.35;;;;;;;27.55;nan;95108.44;4993053;28;20216;-70
2022/08/29 10:06:09;;;;;;;19.40;10.27;;;;;;;27.66;nan;95106.44;4991363;28;20713;-69
2022/08/29 10:08:39;;;;;;;14.35;10.55;;;;;;;27.57;nan;95107.31;4993690;28;20231;-69
2022/08/29 10:11:20;;;;;;;18.48;11.23;;;;;;;27.42;nan;95103.66;4994683;28;20208;-69
2022/08/29 10:13:52;;;;;;;17.67;11.20;;;;;;;27.32;nan;95098.50;4993249;28;20656;-69
2022/08/29 10:16:29;;;;;;;16.75;9.70;;;;;;;27.33;nan;95094.13;4991576;28;20678;-69
2022/08/29 10:19:00;;;;;;;12.65;10.45;;;;;;;27.22;nan;95103.00;4992608;28;21673;-69
2022/08/29 10:21:37;;;;;;;24.67;10.77;;;;;;;27.08;nan;95093.13;4992148;28;20309;-70
2022/08/29 10:24:25;;;;;;;18.02;11.82;;;;;;;27.32;nan;95087.25;4992074;28;20291;-68
2022/08/29 10:27:01;;;;;;;13.05;10.90;;;;;;;27.55;nan;95091.00;4993906;28;20231;-68
2022/08/29 10:29:46;;;;;;;12.38;10.27;;;;;;;27.92;nan;95069.84;4991292;28;20575;-68
2022/08/29 10:32:27;;;;;;;17.40;11.13;;;;;;;28.19;nan;95065.38;4992694;28;20212;-69
2022/08/29 10:35:03;;;;;;;15.05;10.07;;;;;;;28.26;nan;95067.19;4992508;28;20261;-68
2022/08/29 10:37:41;;;;;;;16.85;9.35;;;;;;;28.27;nan;95068.84;4991620;28;20203;-69
2022/08/29 10:40:14;;;;;;;11.82;9.48;;;;;;;28.14;nan;95063.22;4992563;28;20541;-69
2022/08/29 10:42:43;;;;;;;17.10;10.10;;;;;;;28.14;nan;95062.41;4995213;28;20686;-70
2022/08/29 10:45:15;;;;;;;13.82;10.32;;;;;;;28.05;nan;95056.34;4991294;28;20240;-70
2022/08/29 10:47:51;;;;;;;14.95;9.45;;;;;;;27.81;nan;95061.47;4994454;28;20231;-69
2022/08/29 10:50:27;;;;;;;16.35;8.63;;;;;;;27.78;nan;95055.56;4990891;28;21710;-71
2022/08/29 10:53:01;;;;;;;14.85;9.60;;;;;;;27.59;nan;95058.41;4990669;28;20208;-70
2022/08/29 10:55:41;;;;;;;17.60;9.23;;;;;;;27.57;nan;95060.34;4991378;28;20212;-70
2022/08/29 10:58:11;;;;;;;17.35;10.10;;;;;;;27.59;nan;95053.19;4991046;28;20721;-68
2022/08/29 11:00:44;;;;;;;14.70;8.57;;;;;;;27.53;nan;95055.56;4992998;28;21619;-70
2022/08/29 11:03:22;;;;;;;14.23;9.00;;;;;;;27.45;nan;95048.53;4991609;28;21818;-70
2022/08/29 11:05:54;;;;;;;18.83;10.55;;;;;;;27.22;nan;95055.25;4992694;28;20224;-69
2022/08/29 11:08:26;;;;;;;16.02;9.20;;;;;;;27.33;nan;95047.97;4990077;28;20290;-67
2022/08/29 11:10:55;;;;;;;18.52;9.25;;;;;;;27.36;nan;95047.66;4990300;28;20274;-66
2022/08/29 11:13:28;;;;;;;13.07;9.25;;;;;;;27.28;nan;95052.81;4990861;28;20207;-68
2022/08/29 11:16:06;;;;;;;12.77;9.80;;;;;;;26.78;nan;95034.31;4990287;28;20243;-68
2022/08/29 11:18:38;;;;;;;16.40;9.60;;;;;;;26.85;nan;95027.53;4989931;28;20580;-69
2022/08/29 11:21:16;;;;;;;13.13;9.82;;;;;;;26.88;nan;95024.63;4990718;28;20314;-68
2022/08/29 11:23:45;;;;;;;15.57;9.02;;;;;;;27.14;nan;95022.06;4990333;28;20226;-67
2022/08/29 11:26:24;;;;;;;12.60;8.30;;;;;;;27.25;nan;95028.81;4990210;28;20698;-67
2022/08/29 11:28:58;;;;;;;15.70;8.00;;;;;;;27.45;nan;95019.81;4989750;28;20668;-65
2022/08/29 11:31:38;;;;;;;13.00;9.15;;;;;;;27.61;nan;95016.50;4990805;28;20204;-68
2022/08/29 11:34:18;;;;;;;11.65;8.25;;;;;;;27.83;nan;95002.88;4990175;28;20214;-69
2022/08/29 11:37:00;;;;;;;12.45;8.40;;;;;;;28.27;nan;94998.28;4989840;28;20214;-69
2022/08/29 11:39:44;;;;;;;13.55;8.65;;;;;;;28.54;nan;95001.56;4989681;28;20204;-68
2022/08/29 11:42:16;;;;;;;12.23;8.35;;;;;;;28.87;nan;94995.41;4989881;28;20255;-67
2022/08/29 11:44:48;;;;;;;13.00;7.93;;;;;;;28.49;nan;95004.69;4990645;28;20236;-67
2022/08/29 11:47:58;;;;;;;16.20;9.68;;;;;;;28.67;nan;94996.69;4990130;28;20625;-69